Time;durP1;ratioP1;P1;durP2;ratioP2;P2;SDS_P1;SDS_P2;PMS_P1;PMS_P2;Temp;Humidity;BMP_temperature;BMP_pressure;BME280_temperature;BME280_humidity;BME280_pressure;Samples;Min_cycle;Max_cycle;Signal;HPM_P1;HPM_P2
2023/05/04 00:01:17;;;;;;;;;14.50;13.00;25.10;37.80;;;;;;110013;1252;56977;-59
2023/05/04 00:03:44;;;;;;;;;15.00;12.00;25.10;37.80;;;;;;109990;1257;53422;-60
2023/05/04 00:06:11;;;;;;;;;15.00;11.00;25.00;37.80;;;;;;109975;1252;50447;-60
2023/05/04 00:08:38;;;;;;;;;12.00;11.00;25.10;38.10;;;;;;110024;1252;49551;-59
2023/05/04 00:11:05;;;;;;;;;12.00;11.00;25.10;37.80;;;;;;109945;1252;46027;-58
2023/05/04 00:13:32;;;;;;;;;11.00;10.00;25.00;37.70;;;;;;109927;1257;56223;-59
2023/05/04 00:15:59;;;;;;;;;14.00;12.67;25.00;37.80;;;;;;109939;1252;53791;-58
2023/05/04 00:18:26;;;;;;;;;12.00;11.00;25.00;37.80;;;;;;109944;1255;49183;-59
2023/05/04 00:20:53;;;;;;;;;12.00;11.00;25.00;37.80;;;;;;109902;1255;50227;-58
2023/05/04 00:23:20;;;;;;;;;14.00;13.00;25.00;37.80;;;;;;110040;1253;46893;-60
2023/05/04 00:25:46;;;;;;;;;14.00;12.00;25.00;37.80;;;;;;109921;1252;57059;-59
2023/05/04 00:28:13;;;;;;;;;13.00;12.00;25.00;37.80;;;;;;109935;1255;53276;-60
2023/05/04 00:30:40;;;;;;;;;12.00;11.00;25.00;37.70;;;;;;109880;1255;49443;-59
2023/05/04 00:33:07;;;;;;;;;15.50;11.75;25.00;38.00;;;;;;109957;1253;50095;-59
2023/05/04 00:35:34;;;;;;;;;15.50;14.00;25.00;37.80;;;;;;109884;1254;46777;-59
2023/05/04 00:38:03;;;;;;;;;12.67;11.33;25.00;37.80;;;;;;109987;1252;57884;-59
2023/05/04 00:40:30;;;;;;;;;13.00;11.00;25.00;37.70;;;;;;110014;1253;54613;-60
2023/05/04 00:42:57;;;;;;;;;12.00;11.00;25.00;37.70;;;;;;109942;1252;49658;-59
2023/05/04 00:45:25;;;;;;;;;15.50;13.00;25.00;37.70;;;;;;110028;1254;49831;-60
2023/05/04 00:47:53;;;;;;;;;14.00;12.00;25.00;37.70;;;;;;110017;1252;46458;-59
2023/05/04 00:50:22;;;;;;;;;13.00;12.00;25.00;37.70;;;;;;110013;1255;56966;-60
2023/05/04 00:52:49;;;;;;;;;13.00;11.00;25.00;37.90;;;;;;109950;1254;53748;-60
2023/05/04 00:55:16;;;;;;;;;14.00;10.00;24.90;37.60;;;;;;109998;1257;49952;-60
2023/05/04 00:57:44;;;;;;;;;15.00;13.00;24.90;37.60;;;;;;109942;1252;50507;-58
2023/05/04 01:00:12;;;;;;;;;12.00;10.00;24.90;37.60;;;;;;109918;1257;46581;-60
2023/05/04 01:02:40;;;;;;;;;14.00;12.00;24.90;37.70;;;;;;109910;1257;56065;-60
2023/05/04 01:05:08;;;;;;;;;13.00;12.00;24.90;37.60;;;;;;109908;1252;54063;-60
2023/05/04 01:07:44;;;;;;;;;15.00;12.00;24.90;37.60;;;;;;109907;1254;48960;-60
2023/05/04 01:10:15;;;;;;;;;11.00;10.00;24.90;37.60;;;;;;109896;1252;49857;-59
2023/05/04 01:13:10;;;;;;;;;13.00;12.00;24.90;37.60;;;;;;109967;1256;46686;-60
2023/05/04 01:15:38;;;;;;;;;11.00;10.00;24.90;37.80;;;;;;109981;1252;56838;-60
2023/05/04 01:18:06;;;;;;;;;13.00;12.00;24.90;37.60;;;;;;110010;1254;54160;-60
2023/05/04 01:20:33;;;;;;;;;15.00;14.00;25.00;37.50;;;;;;109959;1252;49487;-60
2023/05/04 01:23:00;;;;;;;;;14.00;13.00;24.90;37.50;;;;;;109878;1257;49049;-60
2023/05/04 01:25:33;;;;;;;;;13.50;13.00;24.90;37.50;;;;;;109918;1253;45948;-60
2023/05/04 01:28:07;;;;;;;;;15.00;13.00;24.90;37.50;;;;;;110025;1256;57549;-60
2023/05/04 01:30:38;;;;;;;;;14.00;12.00;24.90;37.50;;;;;;109962;1252;53546;-59
2023/05/04 01:33:06;;;;;;;;;14.00;12.00;24.90;37.50;;;;;;109963;1252;51134;-59
2023/05/04 01:35:33;;;;;;;;;13.67;12.67;24.90;37.50;;;;;;109922;1254;49224;-60
2023/05/04 01:38:01;;;;;;;;;15.50;12.50;24.90;37.70;;;;;;109996;1252;46848;-59
2023/05/04 01:40:28;;;;;;;;;13.00;12.00;24.90;37.70;;;;;;110029;1255;56479;-59
2023/05/04 01:42:56;;;;;;;;;12.50;11.50;24.90;37.50;;;;;;109974;1256;54222;-59
2023/05/04 01:45:23;;;;;;;;;16.00;13.00;24.90;37.50;;;;;;109935;1254;49472;-59
2023/05/04 01:47:50;;;;;;;;;13.00;12.00;24.90;37.50;;;;;;109892;1256;49598;-59
2023/05/04 01:50:17;;;;;;;;;14.00;12.00;24.80;37.40;;;;;;109961;1252;46401;-59
2023/05/04 01:52:44;;;;;;;;;13.00;11.00;24.80;37.40;;;;;;109948;1251;56197;-59
2023/05/04 01:55:11;;;;;;;;;11.00;10.00;24.80;37.40;;;;;;109979;1252;53263;-60
2023/05/04 01:57:39;;;;;;;;;14.00;13.00;24.80;37.40;;;;;;109936;1258;49610;-60
2023/05/04 02:00:07;;;;;;;;;12.00;11.00;24.80;37.40;;;;;;109888;1252;49850;-59
2023/05/04 02:02:33;;;;;;;;;13.67;12.67;24.80;37.40;;;;;;109915;1254;46321;-60
2023/05/04 02:05:01;;;;;;;;;15.00;12.33;24.80;37.40;;;;;;109981;1255;57178;-60
2023/05/04 02:07:28;;;;;;;;;14.00;12.00;24.80;37.40;;;;;;109909;1252;54283;-60
2023/05/04 02:09:55;;;;;;;;;13.00;12.00;24.80;37.40;;;;;;109970;1252;49834;-60
2023/05/04 02:12:22;;;;;;;;;15.00;12.00;24.80;37.50;;;;;;109972;1257;49580;-59
2023/05/04 02:14:49;;;;;;;;;12.50;11.00;24.80;37.40;;;;;;110033;1252;46584;-60
2023/05/04 02:17:16;;;;;;;;;14.00;14.00;24.80;37.40;;;;;;109919;1257;56049;-60
2023/05/04 02:19:43;;;;;;;;;14.00;11.00;24.70;37.30;;;;;;109935;1258;53989;-60
2023/05/04 02:22:10;;;;;;;;;12.00;10.00;24.70;37.30;;;;;;109958;1252;49448;-58
2023/05/04 02:24:39;;;;;;;;;13.00;12.00;24.70;37.50;;;;;;110055;1255;49579;-59
2023/05/04 02:27:06;;;;;;;;;14.00;11.50;24.70;37.30;;;;;;110010;1252;47013;-59
2023/05/04 02:29:33;;;;;;;;;13.00;12.00;24.70;37.30;;;;;;109949;1256;57200;-60
2023/05/04 02:32:00;;;;;;;;;14.50;12.00;24.70;37.20;;;;;;109923;1257;53496;-60
2023/05/04 02:34:28;;;;;;;;;14.00;13.00;24.70;37.30;;;;;;109966;1252;49418;-60
2023/05/04 02:36:55;;;;;;;;;11.00;10.00;24.70;37.30;;;;;;109951;1257;49661;-60
2023/05/04 02:39:22;;;;;;;;;15.00;13.00;24.70;37.30;;;;;;110027;1254;46745;-59
2023/05/04 02:41:49;;;;;;;;;14.00;11.00;24.70;37.30;;;;;;110010;1257;56771;-59
2023/05/04 02:44:15;;;;;;;;;14.00;12.00;24.70;37.30;;;;;;110032;1256;53572;-60
2023/05/04 02:46:42;;;;;;;;;11.75;10.75;24.70;37.30;;;;;;109978;1254;50000;-59
2023/05/04 02:49:10;;;;;;;;;12.00;11.00;24.70;37.30;;;;;;109958;1256;49376;-59
2023/05/04 02:51:37;;;;;;;;;16.50;12.00;24.60;36.90;;;;;;110046;1254;46003;-60
2023/05/04 02:54:05;;;;;;;;;15.00;11.50;24.60;37.20;;;;;;109978;1252;57274;-59
2023/05/04 02:56:34;;;;;;;;;14.50;12.50;24.60;37.20;;;;;;109912;1257;54041;-59
2023/05/04 02:59:01;;;;;;;;;14.00;11.00;24.60;37.20;;;;;;109947;1257;49028;-60
2023/05/04 03:01:28;;;;;;;;;13.00;12.00;24.60;37.20;;;;;;110005;1254;49601;-60
2023/05/04 03:03:55;;;;;;;;;15.00;12.00;24.60;37.10;;;;;;109953;1257;46040;-60
2023/05/04 03:06:22;;;;;;;;;14.00;12.00;24.60;37.10;;;;;;109954;1255;57218;-60
2023/05/04 03:08:49;;;;;;;;;16.00;12.00;24.60;37.20;;;;;;109966;1252;54243;-57
2023/05/04 03:11:16;;;;;;;;;14.00;13.00;24.60;37.10;;;;;;109974;1257;49812;-58
2023/05/04 03:13:43;;;;;;;;;14.00;13.00;24.60;37.10;;;;;;109966;1257;50391;-60
2023/05/04 03:16:10;;;;;;;;;12.00;11.00;24.60;37.10;;;;;;110097;1254;46963;-61
2023/05/04 03:18:37;;;;;;;;;12.33;11.33;24.60;37.10;;;;;;110098;1256;56034;-60
2023/05/04 03:21:04;;;;;;;;;12.50;11.00;24.60;37.10;;;;;;109955;1257;53557;-60
2023/05/04 03:23:31;;;;;;;;;18.00;14.00;24.60;37.30;;;;;;110096;1254;50101;-59
2023/05/04 03:25:58;;;;;;;;;12.00;11.00;24.60;37.10;;;;;;110040;1252;49055;-60
2023/05/04 03:28:25;;;;;;;;;14.67;13.67;24.60;37.10;;;;;;109979;1252;46867;-60
2023/05/04 03:30:52;;;;;;;;;14.00;11.00;24.60;37.10;;;;;;109920;1252;57178;-60
2023/05/04 03:33:19;;;;;;;;;16.00;13.00;24.60;37.10;;;;;;109928;1254;54214;-60
2023/05/04 03:35:46;;;;;;;;;11.50;10.50;24.60;37.10;;;;;;109888;1254;49837;-59
2023/05/04 03:38:13;;;;;;;;;13.67;11.67;24.60;37.10;;;;;;110037;1252;49784;-60
2023/05/04 03:40:40;;;;;;;;;13.50;12.00;24.60;37.10;;;;;;109985;1252;46105;-58
2023/05/04 03:43:07;;;;;;;;;14.00;12.00;24.60;37.10;;;;;;109956;1254;57351;-59
2023/05/04 03:45:35;;;;;;;;;16.00;14.00;24.50;37.00;;;;;;109975;1254;53691;-60
2023/05/04 03:48:02;;;;;;;;;13.00;12.00;24.50;37.30;;;;;;110049;1256;49279;-59
2023/05/04 03:50:30;;;;;;;;;15.00;12.67;24.50;37.00;;;;;;109896;1252;49779;-59
2023/05/04 03:52:58;;;;;;;;;11.50;10.50;24.50;37.00;;;;;;109964;1257;46357;-60
2023/05/04 03:55:24;;;;;;;;;12.67;11.67;24.50;37.10;;;;;;110008;1252;56745;-58
2023/05/04 03:57:51;;;;;;;;;13.00;12.00;24.50;37.10;;;;;;109881;1252;54487;-59
2023/05/04 04:00:18;;;;;;;;;15.00;13.00;24.50;37.00;;;;;;109980;1255;49682;-60
2023/05/04 04:02:46;;;;;;;;;15.00;14.00;24.50;37.10;;;;;;110001;1253;50083;-61
2023/05/04 04:05:13;;;;;;;;;19.00;14.00;24.50;37.00;;;;;;110000;1255;47136;-59
2023/05/04 04:07:40;;;;;;;;;13.00;12.00;24.50;37.10;;;;;;109951;1257;56905;-59
2023/05/04 04:10:08;;;;;;;;;14.67;13.00;24.50;37.10;;;;;;109997;1252;53589;-61
2023/05/04 04:12:35;;;;;;;;;11.00;11.00;24.40;36.90;;;;;;109985;1253;49953;-60
2023/05/04 04:15:03;;;;;;;;;12.00;12.00;24.40;37.00;;;;;;109827;1252;48861;-60
2023/05/04 04:17:30;;;;;;;;;14.00;13.00;24.40;37.20;;;;;;110074;1253;47585;-58
2023/05/04 04:19:57;;;;;;;;;11.00;10.00;24.40;37.60;;;;;;109933;1254;57487;-59
2023/05/04 04:22:25;;;;;;;;;13.67;12.67;24.50;37.00;;;;;;109996;1256;54202;-60
2023/05/04 04:24:52;;;;;;;;;14.00;13.00;24.40;36.90;;;;;;110013;1257;49645;-61
2023/05/04 04:27:19;;;;;;;;;11.00;10.00;24.40;37.30;;;;;;109955;1254;49202;-61
2023/05/04 04:29:46;;;;;;;;;11.67;10.67;24.40;37.20;;;;;;110018;1254;47630;-59
2023/05/04 04:32:13;;;;;;;;;17.00;15.00;24.40;37.50;;;;;;109987;1252;56423;-60
2023/05/04 04:34:40;;;;;;;;;18.00;15.00;24.40;37.50;;;;;;109935;1254;54242;-61
2023/05/04 04:37:07;;;;;;;;;14.00;13.50;24.40;37.50;;;;;;109902;1256;50240;-59
2023/05/04 04:39:34;;;;;;;;;14.50;13.50;24.50;37.60;;;;;;110017;1252;49349;-59
2023/05/04 04:42:01;;;;;;;;;20.00;17.00;24.50;37.60;;;;;;109907;1252;45980;-60
2023/05/04 04:44:28;;;;;;;;;17.50;15.00;24.50;37.80;;;;;;109996;1252;56665;-59
2023/05/04 04:46:55;;;;;;;;;18.00;17.00;24.50;38.40;;;;;;109909;1254;53305;-60
2023/05/04 04:49:22;;;;;;;;;22.00;18.50;24.50;38.40;;;;;;109935;1256;49953;-62
2023/05/04 04:51:49;;;;;;;;;42.00;32.00;24.50;38.60;;;;;;109299;1258;773258;-60
2023/05/04 04:54:16;;;;;;;;;50.00;34.50;24.50;40.40;;;;;;110017;1253;46188;-60
2023/05/04 04:56:44;;;;;;;;;58.75;40.50;24.50;41.90;;;;;;110099;1253;57741;-62
2023/05/04 04:59:12;;;;;;;;;50.00;37.00;24.50;42.90;;;;;;110066;1256;54069;-58
2023/05/04 05:01:42;;;;;;;;;51.67;34.00;24.50;42.50;;;;;;109890;1257;50877;-59
2023/05/04 05:04:09;;;;;;;;;44.00;31.00;24.50;42.30;;;;;;109884;1252;49116;-58
2023/05/04 05:06:36;;;;;;;;;44.00;30.00;24.50;41.80;;;;;;109851;1253;46835;-61
2023/05/04 05:09:03;;;;;;;;;45.00;32.67;24.50;41.80;;;;;;109969;1252;56239;-59
2023/05/04 05:11:31;;;;;;;;;47.00;31.00;24.60;41.40;;;;;;110036;1252;54009;-59
2023/05/04 05:13:58;;;;;;;;;48.00;34.00;24.60;41.20;;;;;;109923;1257;49566;-58
2023/05/04 05:16:25;;;;;;;;;47.00;32.50;24.60;41.80;;;;;;109951;1254;49770;-58
2023/05/04 05:18:53;;;;;;;;;43.50;29.50;24.60;41.50;;;;;;109954;1252;47305;-58
2023/05/04 05:21:19;;;;;;;;;39.50;31.00;24.60;41.60;;;;;;109972;1252;57066;-60
2023/05/04 05:23:47;;;;;;;;;37.00;31.00;24.60;41.50;;;;;;109955;1254;54739;-59
2023/05/04 05:26:13;;;;;;;;;35.50;26.50;24.60;41.40;;;;;;110003;1252;49567;-59
2023/05/04 05:28:40;;;;;;;;;32.50;27.00;24.60;41.60;;;;;;109984;1252;50845;-59
2023/05/04 05:31:08;;;;;;;;;38.50;28.50;24.60;41.50;;;;;;109972;1257;46416;-58
2023/05/04 05:33:35;;;;;;;;;;;24.60;41.40;;;;;;110006;1257;56093;-59
2023/05/04 05:36:02;;;;;;;;;36.00;28.00;24.50;41.40;;;;;;109931;1257;54483;-58
2023/05/04 05:38:30;;;;;;;;;39.00;29.00;24.50;41.40;;;;;;109967;1256;49188;-58
2023/05/04 05:40:57;;;;;;;;;35.00;28.00;24.50;41.10;;;;;;109938;1256;49267;-58
2023/05/04 05:43:24;;;;;;;;;31.00;25.00;24.50;41.10;;;;;;109997;1252;46760;-58
2023/05/04 05:45:52;;;;;;;;;30.00;23.00;24.50;41.10;;;;;;110039;1256;57620;-58
2023/05/04 05:48:19;;;;;;;;;30.00;24.00;24.50;41.30;;;;;;109953;1255;53791;-58
2023/05/04 05:50:46;;;;;;;;;30.00;24.00;24.50;41.00;;;;;;109947;1252;49808;-59
2023/05/04 05:53:13;;;;;;;;;31.00;30.00;24.50;41.10;;;;;;109964;1252;50876;-61
2023/05/04 05:55:40;;;;;;;;;23.00;22.00;24.40;38.70;;;;;;110082;1256;47720;-60
2023/05/04 05:58:07;;;;;;;;;31.00;23.00;24.40;36.80;;;;;;109993;1257;57075;-61
2023/05/04 06:00:34;;;;;;;;;26.00;25.00;24.20;36.30;;;;;;109965;1252;54297;-60
2023/05/04 06:03:01;;;;;;;;;25.00;22.00;24.20;36.50;;;;;;109941;1252;49087;-60
2023/05/04 06:05:28;;;;;;;;;26.00;24.00;24.00;36.20;;;;;;109971;1255;49871;-60
2023/05/04 06:07:55;;;;;;;;;26.00;23.00;23.90;36.60;;;;;;109969;1255;46444;-60
2023/05/04 06:10:22;;;;;;;;;27.33;23.33;23.80;36.50;;;;;;110070;1252;57799;-60
2023/05/04 06:12:49;;;;;;;;;27.50;25.00;23.70;36.60;;;;;;109959;1252;53631;-60
2023/05/04 06:15:16;;;;;;;;;25.00;22.50;23.60;36.80;;;;;;109994;1253;49406;-59
2023/05/04 06:17:43;;;;;;;;;25.00;24.00;23.50;37.20;;;;;;109945;1256;49006;-60
2023/05/04 06:20:10;;;;;;;;;25.50;24.50;23.50;37.50;;;;;;109990;1257;45987;-59
2023/05/04 06:22:37;;;;;;;;;29.00;25.00;23.50;37.30;;;;;;110030;1252;56768;-61
2023/05/04 06:25:05;;;;;;;;;26.00;23.50;23.50;37.20;;;;;;110103;1255;54159;-59
2023/05/04 06:27:32;;;;;;;;;25.50;22.00;23.40;37.80;;;;;;109967;1255;49213;-59
2023/05/04 06:30:00;;;;;;;;;28.00;26.00;23.30;36.80;;;;;;110021;1255;50131;-59
2023/05/04 06:32:26;;;;;;;;;28.00;25.50;23.20;37.10;;;;;;109964;1255;46640;-58
2023/05/04 06:34:58;;;;;;;;;24.00;22.00;23.10;37.10;;;;;;110061;1256;57084;-57
2023/05/04 06:37:25;;;;;;;;;33.50;27.50;23.00;37.20;;;;;;110066;1252;54232;-59
2023/05/04 06:39:53;;;;;;;;;30.00;28.00;22.90;37.40;;;;;;110014;1252;50082;-60
2023/05/04 06:42:20;;;;;;;;;30.50;27.50;22.90;37.40;;;;;;109954;1252;49760;-61
2023/05/04 06:44:47;;;;;;;;;29.00;25.50;22.90;37.50;;;;;;110018;1257;46428;-61
2023/05/04 06:47:14;;;;;;;;;27.00;24.00;22.90;37.30;;;;;;110063;1252;56603;-61
2023/05/04 06:49:42;;;;;;;;;31.00;24.00;22.90;37.40;;;;;;110061;1252;54415;-60
2023/05/04 06:52:09;;;;;;;;;28.67;24.00;22.90;37.70;;;;;;110114;1252;49881;-57
2023/05/04 06:54:38;;;;;;;;;27.67;25.33;22.90;37.90;;;;;;110001;1256;49983;-60
2023/05/04 06:57:05;;;;;;;;;25.00;23.00;22.90;37.80;;;;;;110042;1256;46691;-60
2023/05/04 06:59:32;;;;;;;;;32.00;29.00;22.80;37.80;;;;;;110037;1252;55968;-59
2023/05/04 07:01:59;;;;;;;;;28.50;26.00;22.80;38.10;;;;;;109956;1253;55324;-58
2023/05/04 07:04:26;;;;;;;;;33.00;29.00;22.70;37.90;;;;;;110071;1251;49018;-60
2023/05/04 07:06:53;;;;;;;;;30.50;27.00;22.70;38.10;;;;;;110013;1252;50558;-60
2023/05/04 07:09:21;;;;;;;;;33.00;30.00;22.70;37.80;;;;;;110026;1255;46407;-60
2023/05/04 07:11:48;;;;;;;;;35.67;28.67;22.70;38.00;;;;;;109990;1257;56694;-59
2023/05/04 07:14:15;;;;;;;;;25.00;23.50;22.60;37.80;;;;;;110032;1252;54589;-60
2023/05/04 07:16:42;;;;;;;;;28.00;27.00;22.60;37.70;;;;;;109966;1254;50524;-58
2023/05/04 07:19:09;;;;;;;;;34.00;28.00;22.60;37.90;;;;;;109969;1252;49732;-59
2023/05/04 07:21:36;;;;;;;;;37.00;30.00;22.50;38.40;;;;;;109891;1258;47388;-59
2023/05/04 07:24:04;;;;;;;;;32.00;29.00;22.50;38.60;;;;;;110012;1253;56111;-59
2023/05/04 07:26:31;;;;;;;;;28.00;24.00;22.40;38.20;;;;;;109972;1254;53897;-61
2023/05/04 07:28:57;;;;;;;;;28.00;25.00;22.40;39.00;;;;;;109918;1254;49294;-60
2023/05/04 07:31:24;;;;;;;;;29.00;24.00;22.50;39.60;;;;;;109979;1252;49513;-60
2023/05/04 07:33:51;;;;;;;;;28.67;25.00;22.60;39.80;;;;;;110027;1257;46888;-61
2023/05/04 07:36:19;;;;;;;;;31.00;26.67;22.70;39.90;;;;;;110020;1252;56770;-63
2023/05/04 07:38:46;;;;;;;;;29.50;25.00;22.80;40.20;;;;;;110085;1256;54636;-61
2023/05/04 07:41:13;;;;;;;;;28.00;27.00;22.90;40.20;;;;;;110060;1252;49063;-63
2023/05/04 07:43:40;;;;;;;;;24.00;22.00;23.00;39.90;;;;;;110095;1257;49802;-61
2023/05/04 07:46:07;;;;;;;;;26.33;22.33;23.10;39.90;;;;;;109831;1254;46798;-61
2023/05/04 07:48:34;;;;;;;;;27.00;24.00;23.20;40.00;;;;;;109999;1257;57172;-61
2023/05/04 07:51:02;;;;;;;;;28.00;23.67;23.30;39.90;;;;;;110028;1256;53977;-61
2023/05/04 07:53:28;;;;;;;;;25.00;23.00;23.30;40.20;;;;;;109943;1252;50234;-60
2023/05/04 07:55:59;;;;;;;;;26.00;23.00;23.40;40.20;;;;;;110011;1257;50681;-62
2023/05/04 07:58:26;;;;;;;;;22.00;21.00;23.40;39.90;;;;;;109948;1252;46691;-60
2023/05/04 08:00:53;;;;;;;;;24.00;21.00;23.40;39.70;;;;;;110009;1257;57559;-60
2023/05/04 08:03:20;;;;;;;;;23.00;21.00;23.50;39.70;;;;;;109994;1257;54090;-60
2023/05/04 08:05:47;;;;;;;;;33.00;27.00;23.50;39.90;;;;;;110016;1256;49293;-61
2023/05/04 08:08:14;;;;;;;;;29.00;25.00;23.50;40.00;;;;;;109932;1257;49693;-62
2023/05/04 08:10:41;;;;;;;;;25.00;21.50;23.50;40.00;;;;;;109999;1252;46464;-60
2023/05/04 08:13:08;;;;;;;;;29.00;22.50;23.60;40.00;;;;;;109984;1254;57472;-60
2023/05/04 08:15:34;;;;;;;;;30.00;24.00;23.60;40.20;;;;;;110107;1252;54987;-59
2023/05/04 08:18:01;;;;;;;;;29.00;23.00;23.70;40.20;;;;;;109993;1256;50383;-60
2023/05/04 08:20:28;;;;;;;;;21.00;19.00;23.70;40.20;;;;;;109989;1257;49070;-61
2023/05/04 08:22:55;;;;;;;;;19.50;18.50;23.70;40.20;;;;;;109971;1252;46013;-62
2023/05/04 08:25:22;;;;;;;;;23.00;22.00;23.80;40.40;;;;;;110064;1252;56783;-60
2023/05/04 08:27:49;;;;;;;;;28.00;23.00;23.80;40.20;;;;;;109959;1252;53423;-60
2023/05/04 08:30:17;;;;;;;;;23.25;22.25;23.80;40.00;;;;;;110114;1252;49821;-59
2023/05/04 08:32:44;;;;;;;;;21.67;18.33;23.80;40.30;;;;;;109972;1252;49904;-61
2023/05/04 08:35:12;;;;;;;;;23.00;21.50;23.80;40.60;;;;;;110080;1254;46152;-59
2023/05/04 08:37:39;;;;;;;;;24.00;21.00;23.80;40.70;;;;;;110146;1252;56735;-60
2023/05/04 08:40:07;;;;;;;;;23.00;22.00;23.90;40.10;;;;;;109948;1257;54135;-58
2023/05/04 08:42:34;;;;;;;;;19.00;18.00;23.90;40.00;;;;;;109953;1254;49624;-59
2023/05/04 08:45:01;;;;;;;;;25.00;20.00;23.90;40.00;;;;;;109988;1252;50121;-60
2023/05/04 08:47:28;;;;;;;;;26.00;22.00;23.90;40.20;;;;;;109926;1252;47036;-59
2023/05/04 08:49:55;;;;;;;;;24.33;22.33;24.00;40.10;;;;;;110050;1254;56653;-61
2023/05/04 08:52:23;;;;;;;;;22.00;19.00;24.00;40.30;;;;;;110000;1256;54703;-61
2023/05/04 08:54:55;;;;;;;;;22.50;20.50;24.00;40.10;;;;;;110045;1255;49768;-60
2023/05/04 08:57:23;;;;;;;;;23.00;22.00;24.00;40.20;;;;;;110026;1252;49349;-60
2023/05/04 08:59:54;;;;;;;;;22.00;20.00;24.00;40.30;;;;;;109989;1256;46583;-59
2023/05/04 09:02:23;;;;;;;;;29.00;26.00;24.10;40.40;;;;;;110023;1252;58348;-62
2023/05/04 09:04:51;;;;;;;;;24.00;21.00;24.10;40.40;;;;;;110046;1251;53763;-64
2023/05/04 09:07:20;;;;;;;;;20.00;18.00;24.10;40.20;;;;;;110013;1252;50382;-62
2023/05/04 09:09:49;;;;;;;;;21.00;20.00;24.10;40.20;;;;;;110004;1252;49718;-63
2023/05/04 09:12:17;;;;;;;;;22.50;19.50;24.10;40.30;;;;;;110022;1252;46217;-61
2023/05/04 09:14:47;;;;;;;;;19.50;18.50;24.10;40.30;;;;;;109983;1252;56774;-59
2023/05/04 09:17:26;;;;;;;;;17.00;16.00;24.10;40.00;;;;;;110053;1252;54257;-59
2023/05/04 09:20:00;;;;;;;;;23.50;20.50;24.10;39.70;;;;;;110034;1255;49560;-62
2023/05/04 09:22:28;;;;;;;;;25.50;22.00;24.20;40.30;;;;;;109990;1256;49330;-62
2023/05/04 09:25:12;;;;;;;;;22.00;20.00;24.20;40.00;;;;;;110076;1252;46367;-57
2023/05/04 09:27:41;;;;;;;;;20.00;18.00;24.20;40.00;;;;;;110004;1252;56692;-59
2023/05/04 09:30:09;;;;;;;;;22.00;21.00;24.20;40.00;;;;;;110380;1255;54551;-58
2023/05/04 09:32:47;;;;;;;;;21.00;20.00;24.20;40.30;;;;;;110121;1252;50417;-60
2023/05/04 09:35:17;;;;;;;;;22.00;17.00;24.20;40.40;;;;;;110116;1254;49999;-61
2023/05/04 09:37:44;;;;;;;;;20.00;19.00;24.30;40.30;;;;;;109984;1257;45947;-61
2023/05/04 09:40:12;;;;;;;;;21.00;18.00;24.30;40.40;;;;;;109956;1256;56775;-60
2023/05/04 09:42:39;;;;;;;;;18.00;17.00;24.30;40.30;;;;;;109996;1252;54350;-60
2023/05/04 09:45:08;;;;;;;;;22.00;21.00;24.30;40.30;;;;;;110089;1257;49675;-61
2023/05/04 09:47:39;;;;;;;;;20.50;19.50;24.40;40.50;;;;;;110098;1254;50078;-62
2023/05/04 09:50:17;;;;;;;;;21.00;19.00;24.40;40.40;;;;;;110074;1252;46737;-62
2023/05/04 09:52:46;;;;;;;;;19.00;18.00;24.40;40.40;;;;;;109999;1252;56756;-60
2023/05/04 09:55:14;;;;;;;;;22.25;19.25;24.40;40.40;;;;;;110023;1256;54005;-60
2023/05/04 09:57:43;;;;;;;;;20.00;19.00;24.40;40.40;;;;;;110171;1255;49485;-61
2023/05/04 10:00:12;;;;;;;;;20.00;18.00;24.50;40.60;;;;;;110074;1256;49340;-60
2023/05/04 10:02:39;;;;;;;;;20.00;19.00;24.50;40.40;;;;;;109996;1253;45842;-59
2023/05/04 10:05:08;;;;;;;;;21.00;19.00;24.50;40.50;;;;;;110054;1252;57030;-61
2023/05/04 10:07:35;;;;;;;;;22.00;19.50;24.50;40.70;;;;;;110043;1254;54867;-62
2023/05/04 10:10:04;;;;;;;;;21.00;19.00;24.50;40.50;;;;;;109921;1254;49935;-60
2023/05/04 10:12:30;;;;;;;;;19.00;18.00;24.50;40.60;;;;;;109973;1252;49786;-59
2023/05/04 10:14:57;;;;;;;;;17.00;16.00;24.40;40.60;;;;;;109968;1252;47706;-60
2023/05/04 10:17:41;;;;;;;;;20.33;18.00;24.40;40.70;;;;;;109974;1252;56577;-59
2023/05/04 10:20:33;;;;;;;;;19.00;18.00;24.40;40.70;;;;;;109979;1257;54788;-60
2023/05/04 10:23:25;;;;;;;;;16.75;15.75;24.40;41.30;;;;;;110053;1252;50452;-62
2023/05/04 10:26:12;;;;;;;;;22.00;17.00;24.40;40.90;;;;;;110043;1253;49902;-60
2023/05/04 10:28:49;;;;;;;;;20.00;19.00;24.40;41.00;;;;;;110043;1257;46904;-59
2023/05/04 10:31:17;;;;;;;;;21.00;20.00;24.50;41.30;;;;;;109956;1256;57231;-60
2023/05/04 10:33:44;;;;;;;;;18.00;17.00;24.50;41.10;;;;;;110015;1256;54934;-59
2023/05/04 10:36:11;;;;;;;;;20.00;18.00;24.40;41.30;;;;;;110007;1257;49924;-62
2023/05/04 10:38:40;;;;;;;;;16.00;15.00;24.50;41.30;;;;;;109939;1252;48859;-62
2023/05/04 10:41:17;;;;;;;;;20.00;19.00;24.50;41.10;;;;;;110020;1255;47063;-61
2023/05/04 10:43:49;;;;;;;;;26.00;20.00;24.50;41.00;;;;;;110029;1257;57526;-61
2023/05/04 10:46:21;;;;;;;;;20.00;18.00;24.50;41.10;;;;;;110018;1252;54040;-61
2023/05/04 10:48:49;;;;;;;;;23.00;17.00;24.60;41.10;;;;;;109969;1252;49428;-60
2023/05/04 10:51:24;;;;;;;;;20.00;19.00;24.60;41.90;;;;;;109923;1254;48991;-60
2023/05/04 10:53:51;;;;;;;;;19.33;17.33;24.60;43.00;;;;;;109997;1252;47055;-61
2023/05/04 10:56:23;;;;;;;;;23.00;19.00;24.70;44.20;;;;;;110063;1252;57931;-60
2023/05/04 10:58:51;;;;;;;;;21.00;20.00;24.70;43.80;;;;;;109960;1257;54107;-58
2023/05/04 11:01:19;;;;;;;;;25.00;19.00;24.70;44.40;;;;;;110065;1257;48980;-59
2023/05/04 11:03:47;;;;;;;;;30.00;21.00;24.70;45.10;;;;;;109953;1256;49931;-59
2023/05/04 11:06:21;;;;;;;;;23.00;19.50;24.60;44.80;;;;;;109996;1257;46570;-61
2023/05/04 11:08:59;;;;;;;;;41.00;32.00;24.60;44.50;;;;;;109951;1257;57229;-60
2023/05/04 11:11:26;;;;;;;;;47.00;33.00;24.60;44.60;;;;;;109983;1254;53761;-58
2023/05/04 11:13:55;;;;;;;;;39.67;30.00;24.60;44.90;;;;;;109911;1252;50255;-60
2023/05/04 11:16:26;;;;;;;;;33.00;26.00;24.60;44.70;;;;;;109906;1252;49979;-59
2023/05/04 11:18:53;;;;;;;;;41.67;27.33;24.60;44.90;;;;;;110026;1255;47239;-59
2023/05/04 11:21:27;;;;;;;;;36.50;29.50;24.60;44.40;;;;;;109953;1252;56898;-61
2023/05/04 11:23:58;;;;;;;;;25.50;22.50;24.50;44.50;;;;;;109947;1254;53843;-58
2023/05/04 11:26:27;;;;;;;;;30.50;27.50;24.50;44.30;;;;;;110384;1252;49856;-60
2023/05/04 11:28:54;;;;;;;;;26.00;23.00;24.50;44.10;;;;;;110020;1256;49885;-60
2023/05/04 11:31:21;;;;;;;;;28.00;25.00;24.40;44.20;;;;;;110016;1252;46918;-61
2023/05/04 11:33:50;;;;;;;;;23.00;20.00;24.40;44.20;;;;;;110061;1257;56745;-60
2023/05/04 11:36:18;;;;;;;;;24.00;22.00;24.40;44.30;;;;;;109986;1254;53922;-60
2023/05/04 11:38:46;;;;;;;;;29.00;24.00;24.40;44.00;;;;;;109960;1253;48992;-59
2023/05/04 11:41:13;;;;;;;;;26.00;23.00;24.40;44.10;;;;;;110001;1256;49260;-60
2023/05/04 11:43:42;;;;;;;;;28.00;23.00;24.40;43.60;;;;;;109899;1252;46086;-59
2023/05/04 11:46:10;;;;;;;;;27.00;21.67;24.30;43.90;;;;;;109922;1255;56786;-59
2023/05/04 11:48:38;;;;;;;;;20.00;19.00;24.30;44.00;;;;;;109981;1256;54402;-60
2023/05/04 11:51:05;;;;;;;;;24.50;21.50;24.30;43.90;;;;;;109784;1254;49504;-60
2023/05/04 11:53:39;;;;;;;;;25.50;19.50;24.30;43.90;;;;;;109939;1252;48969;-59
2023/05/04 11:56:07;;;;;;;;;25.33;19.00;24.30;44.10;;;;;;109730;1257;46055;-59
2023/05/04 11:58:35;;;;;;;;;20.00;19.00;24.20;43.70;;;;;;109970;1257;56670;-58
2023/05/04 12:01:02;;;;;;;;;20.00;17.00;24.20;43.30;;;;;;109949;1257;54137;-60
2023/05/04 12:03:31;;;;;;;;;19.50;18.50;24.20;43.60;;;;;;109959;1256;49387;-58
2023/05/04 12:05:59;;;;;;;;;23.00;19.00;24.20;43.60;;;;;;109996;1255;49387;-60
2023/05/04 12:08:33;;;;;;;;;19.00;18.00;24.20;43.50;;;;;;109992;1254;46017;-59
2023/05/04 12:11:08;;;;;;;;;23.50;19.00;24.10;43.50;;;;;;110023;1256;56687;-59
2023/05/04 12:13:36;;;;;;;;;21.00;19.00;24.20;43.40;;;;;;110024;1257;54158;-61
2023/05/04 12:16:13;;;;;;;;;19.00;15.00;24.20;43.40;;;;;;109986;1254;49937;-60
2023/05/04 12:18:41;;;;;;;;;20.00;16.00;24.20;43.30;;;;;;110022;1252;49615;-59
2023/05/04 12:21:17;;;;;;;;;20.00;17.00;24.10;43.20;;;;;;109653;1255;45943;-59
2023/05/04 12:23:45;;;;;;;;;20.33;18.00;24.20;43.30;;;;;;109959;1257;56964;-59